Terminal Aerodrome Forecast
Issued by NWS

Home | Current Version | Previous Version | Graphics & Text | Print | Product List | Glossary On
Versions: 1 2 3 4 5 6 7 8 9 10 11 12 13 14 15 16 17 18
000
FTUS43 KMPX 240904 AAA
TAFRNH
TAF AMD
KRNH 240904Z 2409/2506 25004KT 6SM BR SCT007 BKN013 OVC130
     FM241400 25005KT P6SM SCT012 OVC040
     FM242000 28005KT P6SM OVC020
     FM250200 04006KT 1 1/2SM -SN OVC012
      TEMPO 2503/2506 3/4SM -SN VV006=

USA.gov is the U.S. government's official web portal to all federal, state and local government web resources and services.